Time;durP1;ratioP1;P1;durP2;ratioP2;P2;SDS_P1;SDS_P2;PMS_P1;PMS_P2;Temp;Humidity;BMP_temperature;BMP_pressure;BME280_temperature;BME280_humidity;BME280_pressure;Samples;Min_cycle;Max_cycle;Signal;HPM_P1;HPM_P2
2022/03/16 00:01:46;;;;;;;54.23;30.17;;;;;;;4.36;100.00;101049.53;5017327;28;20252;-79
2022/03/16 00:04:14;;;;;;;58.67;32.80;;;;;;;4.35;100.00;101053.84;5017514;28;20191;-79
2022/03/16 00:06:41;;;;;;;68.73;33.70;;;;;;;4.35;100.00;101047.81;5017545;28;20211;-79
2022/03/16 00:09:07;;;;;;;61.40;34.67;;;;;;;4.44;100.00;101042.81;5017460;28;20246;-77
2022/03/16 00:11:33;;;;;;;62.13;35.13;;;;;;;4.50;100.00;101039.41;5009111;28;20207;-79
2022/03/16 00:14:00;;;;;;;60.17;33.10;;;;;;;4.46;100.00;101051.44;5011395;28;20223;-79
2022/03/16 00:16:26;;;;;;;50.73;29.57;;;;;;;4.31;100.00;101057.22;5016582;28;20215;-79
2022/03/16 00:18:53;;;;;;;46.17;27.33;;;;;;;4.31;100.00;101072.72;5017145;28;20309;-79
2022/03/16 00:21:21;;;;;;;53.00;28.63;;;;;;;4.34;100.00;101093.47;5017034;28;20219;-78
2022/03/16 00:23:47;;;;;;;47.30;29.20;;;;;;;4.46;100.00;101104.84;5016653;28;20198;-79
2022/03/16 00:26:14;;;;;;;60.63;32.60;;;;;;;4.41;100.00;101112.53;5017227;28;20649;-78
2022/03/16 00:28:40;;;;;;;64.50;31.73;;;;;;;4.38;100.00;101107.31;5016948;28;20277;-78
2022/03/16 00:31:07;;;;;;;60.43;32.17;;;;;;;4.31;100.00;101108.06;5016859;28;20279;-79
2022/03/16 00:33:34;;;;;;;61.37;32.43;;;;;;;4.34;100.00;101106.41;5014705;28;20330;-79
2022/03/16 00:36:00;;;;;;;57.57;32.87;;;;;;;4.37;100.00;101108.16;5016418;28;20218;-79
2022/03/16 00:38:28;;;;;;;58.87;32.23;;;;;;;4.35;100.00;101108.13;5016645;28;20231;-79
2022/03/16 00:40:54;;;;;;;52.40;30.70;;;;;;;4.40;100.00;101121.16;5011484;28;20238;-79
2022/03/16 00:43:21;;;;;;;45.90;27.30;;;;;;;4.56;100.00;101119.69;5009065;28;20196;-78
2022/03/16 00:45:47;;;;;;;46.83;29.33;;;;;;;4.68;100.00;101147.47;5016578;28;20257;-78
2022/03/16 00:48:14;;;;;;;43.73;28.10;;;;;;;4.49;100.00;101141.97;5016944;28;20231;-79
2022/03/16 00:50:40;;;;;;;47.67;30.13;;;;;;;4.46;100.00;101157.44;5016664;28;20203;-79
2022/03/16 00:53:07;;;;;;;36.97;25.20;;;;;;;4.51;100.00;101167.84;5016527;28;20739;-79
2022/03/16 00:55:34;;;;;;;34.90;24.47;;;;;;;4.61;99.47;101190.44;5017447;28;20210;-79
2022/03/16 00:58:02;;;;;;;34.80;23.77;;;;;;;4.72;98.21;101208.72;5017483;28;20229;-79
2022/03/16 01:00:29;;;;;;;42.40;26.90;;;;;;;4.75;97.65;101232.91;5017075;28;20298;-79
2022/03/16 01:02:55;;;;;;;36.40;24.83;;;;;;;4.53;97.48;101248.88;5017020;28;20219;-79
2022/03/16 01:05:22;;;;;;;39.17;27.37;;;;;;;4.36;97.23;101257.19;5016701;28;20218;-79
2022/03/16 01:07:48;;;;;;;52.03;30.13;;;;;;;4.23;98.22;101238.84;5016669;28;20256;-78
2022/03/16 01:10:15;;;;;;;81.07;39.47;;;;;;;4.24;100.00;101194.94;5012169;28;20215;-80
2022/03/16 01:12:42;;;;;;;79.17;39.70;;;;;;;4.25;100.00;101162.22;5005121;28;20204;-78
2022/03/16 01:15:09;;;;;;;73.40;35.63;;;;;;;4.33;100.00;101130.47;4996481;28;20779;-78
2022/03/16 01:17:35;;;;;;;52.10;32.10;;;;;;;4.47;100.00;101129.88;4996459;28;20729;-79
2022/03/16 01:20:02;;;;;;;46.20;28.97;;;;;;;4.55;100.00;101142.06;4996570;28;20667;-78
2022/03/16 01:22:28;;;;;;;43.53;27.83;;;;;;;4.67;100.00;101150.88;4996316;28;20755;-79
2022/03/16 01:24:55;;;;;;;43.53;27.10;;;;;;;4.73;99.97;101175.13;4996999;28;20208;-78
2022/03/16 01:27:21;;;;;;;42.47;25.60;;;;;;;4.75;97.85;101216.53;4997057;28;20273;-78
2022/03/16 01:29:49;;;;;;;35.97;24.83;;;;;;;4.81;96.14;101270.94;4996595;28;20228;-79
2022/03/16 01:32:15;;;;;;;37.70;25.17;;;;;;;4.81;94.51;101321.81;4995965;28;20743;-79
2022/03/16 01:34:42;;;;;;;36.13;25.00;;;;;;;4.77;93.07;101354.50;4996195;28;20282;-79
2022/03/16 01:37:10;;;;;;;40.43;24.73;;;;;;;4.76;92.02;101388.97;4996955;28;20211;-79
2022/03/16 01:39:36;;;;;;;24.60;20.83;;;;;;;4.77;90.97;101422.63;4996216;28;20231;-79
2022/03/16 01:42:03;;;;;;;32.00;23.83;;;;;;;4.71;90.42;101438.00;5005130;28;20231;-79
2022/03/16 01:44:42;;;;;;;26.97;21.60;;;;;;;4.68;89.72;101462.97;5014179;28;20273;-79
2022/03/16 01:47:10;;;;;;;28.10;21.47;;;;;;;4.65;89.03;101479.25;5015328;28;20206;-78
2022/03/16 01:49:37;;;;;;;25.67;21.23;;;;;;;4.63;89.09;101490.41;5013496;28;20269;-77
2022/03/16 01:52:04;;;;;;;30.17;22.17;;;;;;;4.65;88.72;101499.06;5014287;28;20265;-78
2022/03/16 01:54:31;;;;;;;35.33;22.80;;;;;;;4.66;88.33;101513.75;5013642;28;20233;-77
2022/03/16 01:56:58;;;;;;;32.57;22.70;;;;;;;4.70;87.79;101515.59;5013305;28;20234;-78
2022/03/16 01:59:24;;;;;;;25.30;21.20;;;;;;;4.70;87.91;101526.78;5013943;28;20724;-78
2022/03/16 02:01:51;;;;;;;29.20;22.43;;;;;;;4.64;87.45;101533.53;5014513;28;20218;-78
2022/03/16 02:04:18;;;;;;;28.97;22.77;;;;;;;4.69;87.20;101539.69;5015293;28;20207;-79
2022/03/16 02:06:45;;;;;;;38.13;23.30;;;;;;;4.72;87.32;101542.34;5016768;28;20550;-79
2022/03/16 02:09:13;;;;;;;41.50;26.37;;;;;;;4.73;87.38;101544.94;5017060;28;20227;-80
2022/03/16 02:11:40;;;;;;;48.63;29.43;;;;;;;4.65;89.86;101505.13;5008336;28;20200;-80
2022/03/16 02:14:06;;;;;;;56.27;31.03;;;;;;;4.60;92.58;101429.16;5011627;28;20233;-79
2022/03/16 02:16:34;;;;;;;47.00;28.53;;;;;;;4.56;93.66;101367.91;5016684;28;20215;-79
2022/03/16 02:19:00;;;;;;;39.40;26.67;;;;;;;4.67;93.53;101365.50;5016570;28;20720;-79
2022/03/16 02:21:29;;;;;;;42.70;27.93;;;;;;;4.72;93.16;101369.94;5016441;28;20617;-80
2022/03/16 02:23:57;;;;;;;42.03;27.83;;;;;;;4.79;92.83;101386.44;5016688;28;20278;-78
2022/03/16 02:26:26;;;;;;;40.70;27.87;;;;;;;4.76;91.40;101420.03;5016691;28;20211;-80
2022/03/16 02:28:53;;;;;;;43.30;28.50;;;;;;;4.79;91.60;101430.41;5016601;28;20615;-79
2022/03/16 02:31:20;;;;;;;51.60;30.87;;;;;;;4.84;91.42;101422.78;5016555;28;20233;-79
2022/03/16 02:33:47;;;;;;;54.80;31.53;;;;;;;4.77;93.37;101399.34;5016765;28;20234;-80
2022/03/16 02:36:13;;;;;;;52.70;31.87;;;;;;;4.72;94.56;101349.25;5016251;28;20249;-79
2022/03/16 02:38:40;;;;;;;64.57;33.07;;;;;;;4.68;95.26;101337.09;5016040;28;20227;-79
2022/03/16 02:41:07;;;;;;;61.43;32.33;;;;;;;4.61;96.45;101306.78;5011142;28;20203;-79
2022/03/16 02:43:34;;;;;;;61.90;33.97;;;;;;;4.59;97.26;101287.78;5008256;28;20273;-78
2022/03/16 02:46:00;;;;;;;63.57;32.50;;;;;;;4.33;97.63;101282.97;5015604;28;20207;-78
2022/03/16 02:48:27;;;;;;;95.90;27.97;;;;;;;4.14;96.69;101299.81;5014765;28;20634;-79
2022/03/16 02:50:54;;;;;;;40.83;27.17;;;;;;;4.23;96.61;101296.53;5015315;28;20614;-79
2022/03/16 02:53:20;;;;;;;113.30;25.23;;;;;;;3.94;95.04;101327.81;5015373;28;20215;-79
2022/03/16 02:55:47;;;;;;;125.33;23.93;;;;;;;3.86;94.39;101360.31;5014824;28;20258;-77
2022/03/16 02:58:17;;;;;;;68.27;21.90;;;;;;;3.56;93.71;101391.44;5017887;28;20318;-78
2022/03/16 03:00:44;;;;;;;23.13;20.77;;;;;;;3.58;93.37;101403.53;5018053;28;20731;-78
2022/03/16 03:03:11;;;;;;;22.33;20.27;;;;;;;3.65;92.09;101420.06;5017901;28;20218;-80
2022/03/16 03:05:37;;;;;;;21.70;19.50;;;;;;;3.73;91.76;101433.19;5017045;28;20667;-79
2022/03/16 03:08:04;;;;;;;19.43;17.63;;;;;;;3.71;90.08;101481.31;5018450;28;20211;-80
2022/03/16 03:10:31;;;;;;;19.73;18.03;;;;;;;3.66;89.58;101506.13;5013095;28;20223;-78
2022/03/16 03:12:57;;;;;;;21.53;19.50;;;;;;;3.64;88.99;101516.41;5010416;28;20268;-78
2022/03/16 03:15:25;;;;;;;23.47;20.73;;;;;;;3.65;88.81;101528.50;5018704;28;20230;-78
2022/03/16 03:17:52;;;;;;;23.23;20.83;;;;;;;3.64;88.16;101537.06;5019081;28;20211;-78
2022/03/16 03:20:19;;;;;;;27.97;20.80;;;;;;;3.60;87.90;101540.41;5018919;28;20211;-79
2022/03/16 03:22:46;;;;;;;25.93;20.50;;;;;;;3.62;87.63;101553.38;5018271;28;20207;-79
2022/03/16 03:25:14;;;;;;;27.73;21.17;;;;;;;3.53;87.13;101567.78;5018131;28;20199;-78
2022/03/16 03:27:41;;;;;;;26.17;21.83;;;;;;;3.38;86.85;101573.34;5018350;28;20206;-78
2022/03/16 03:30:09;;;;;;;26.23;21.37;;;;;;;3.39;86.68;101563.94;5018596;28;20250;-78
2022/03/16 03:32:36;;;;;;;23.87;20.00;;;;;;;3.37;86.75;101571.63;5018559;28;20257;-78
2022/03/16 03:35:03;;;;;;;21.40;19.30;;;;;;;3.35;86.48;101573.28;5018036;28;20226;-78
2022/03/16 03:37:30;;;;;;;19.67;17.67;;;;;;;3.26;86.51;101575.59;5017794;28;20289;-78
2022/03/16 03:39:57;;;;;;;21.33;18.97;;;;;;;3.25;86.20;101571.28;5015331;28;20239;-78
2022/03/16 03:42:23;;;;;;;21.10;18.90;;;;;;;3.20;87.15;101564.22;5008033;28;20203;-78
2022/03/16 03:44:50;;;;;;;25.40;20.20;;;;;;;3.25;86.47;101554.88;5018165;28;20249;-79
2022/03/16 03:47:17;;;;;;;23.97;20.53;;;;;;;3.22;87.27;101554.81;5017759;28;20210;-78
2022/03/16 03:49:45;;;;;;;30.10;21.67;;;;;;;3.16;87.77;101538.31;5018588;28;20227;-78
2022/03/16 03:52:12;;;;;;;28.63;21.47;;;;;;;3.12;87.74;101517.56;5018368;28;20629;-78
2022/03/16 03:54:40;;;;;;;31.03;23.03;;;;;;;3.07;88.17;101513.97;5018038;28;20234;-78
2022/03/16 03:57:07;;;;;;;23.33;20.80;;;;;;;3.08;88.85;101472.75;5018119;28;20610;-78
2022/03/16 03:59:34;;;;;;;27.13;22.77;;;;;;;3.21;90.02;101443.00;5018032;28;20758;-79
2022/03/16 04:02:00;;;;;;;26.23;23.37;;;;;;;3.28;91.19;101410.50;5018264;28;20214;-79
2022/03/16 04:04:27;;;;;;;30.13;23.20;;;;;;;3.40;91.94;101400.50;5018084;28;20203;-79
2022/03/16 04:06:55;;;;;;;29.77;22.77;;;;;;;3.49;92.76;101381.78;5017664;28;20211;-79
2022/03/16 04:09:21;;;;;;;25.03;22.17;;;;;;;3.57;92.41;101373.41;5018237;28;20290;-79
2022/03/16 04:11:48;;;;;;;21.60;19.70;;;;;;;3.64;92.53;101378.72;5007530;28;20218;-78
2022/03/16 04:14:16;;;;;;;18.67;17.13;;;;;;;3.60;91.69;101393.25;5012856;28;20254;-79
2022/03/16 04:16:42;;;;;;;18.93;17.20;;;;;;;3.35;91.52;101426.19;5018435;28;20211;-79
2022/03/16 04:19:08;;;;;;;92.43;18.33;;;;;;;2.28;90.37;101467.78;5017290;28;20223;-79
2022/03/16 04:21:35;;;;;;;43.30;17.70;;;;;;;1.46;92.28;101453.91;5017901;28;20291;-79
2022/03/16 04:24:03;;;;;;;69.57;21.70;;;;;;;1.21;94.01;101385.34;5017580;28;20297;-79
2022/03/16 04:26:30;;;;;;;34.77;21.30;;;;;;;1.18;95.39;101341.50;5017986;28;20238;-79
2022/03/16 04:28:57;;;;;;;24.67;22.23;;;;;;;1.54;95.94;101304.97;5018779;28;20246;-79
2022/03/16 04:31:23;;;;;;;26.63;21.43;;;;;;;1.83;95.82;101292.13;5018645;28;20613;-78
2022/03/16 04:33:50;;;;;;;22.23;19.83;;;;;;;2.06;96.26;101301.44;5018189;28;20257;-78
2022/03/16 04:36:16;;;;;;;25.30;22.57;;;;;;;2.27;95.45;101308.03;5018507;28;20234;-78
2022/03/16 04:38:42;;;;;;;23.30;21.03;;;;;;;2.46;95.83;101307.72;5021483;28;20230;-78
2022/03/16 04:41:10;;;;;;;22.13;19.80;;;;;;;2.57;95.59;101311.44;5017615;28;20206;-78
2022/03/16 04:43:37;;;;;;;21.03;18.73;;;;;;;2.64;94.33;101324.53;5013207;28;20257;-79
2022/03/16 04:46:04;;;;;;;19.50;18.00;;;;;;;2.68;94.44;101340.13;5022989;28;20238;-79
2022/03/16 04:48:31;;;;;;;18.93;17.43;;;;;;;2.75;92.71;101365.22;5023123;28;20262;-78
2022/03/16 04:50:57;;;;;;;18.63;17.03;;;;;;;2.81;93.01;101398.03;5022795;28;20669;-79
2022/03/16 04:53:23;;;;;;;20.37;18.57;;;;;;;2.83;92.23;101411.84;5019925;28;20249;-78
2022/03/16 04:55:50;;;;;;;18.73;17.20;;;;;;;2.81;92.42;101415.22;5017463;28;20226;-79
2022/03/16 04:58:18;;;;;;;22.63;19.90;;;;;;;2.82;91.51;101425.59;5015986;28;20242;-78
2022/03/16 05:00:44;;;;;;;49.63;19.77;;;;;;;2.83;91.47;101447.06;5017206;28;20257;-79
2022/03/16 05:03:11;;;;;;;30.67;20.07;;;;;;;2.78;91.28;101439.22;5016153;28;20214;-78
2022/03/16 05:05:37;;;;;;;50.17;19.63;;;;;;;2.46;91.56;101449.44;5015916;28;20202;-78
2022/03/16 05:08:04;;;;;;;23.13;19.57;;;;;;;2.34;91.88;101425.91;5016260;28;20203;-78
2022/03/16 05:10:32;;;;;;;40.97;17.70;;;;;;;1.75;91.94;101439.47;5011295;28;20215;-79
2022/03/16 05:12:58;;;;;;;44.57;16.47;;;;;;;1.30;92.31;101431.06;5007617;28;20582;-77
2022/03/16 05:15:26;;;;;;;25.47;19.73;;;;;;;1.22;93.06;101406.78;5015011;28;20225;-79
2022/03/16 05:17:52;;;;;;;19.73;18.00;;;;;;;1.36;93.80;101385.84;5016277;28;20212;-78
2022/03/16 05:20:19;;;;;;;45.63;18.80;;;;;;;1.43;93.62;101381.81;5026988;22;20651;-74
2022/03/16 05:22:47;;;;;;;20.90;16.57;;;;;;;1.47;93.58;101391.38;5024282;28;20214;-72
2022/03/16 05:25:16;;;;;;;41.83;18.27;;;;;;;1.43;92.29;101422.06;5031685;28;20262;-72
2022/03/16 05:27:43;;;;;;;54.77;18.67;;;;;;;0.68;94.27;101415.16;5032240;28;20294;-72
2022/03/16 05:30:11;;;;;;;58.07;19.83;;;;;;;0.38;96.40;101356.69;5032154;28;20291;-72
2022/03/16 05:32:41;;;;;;;74.63;23.30;;;;;;;0.12;98.11;101307.78;5031846;28;20258;-72
2022/03/16 05:35:09;;;;;;;73.70;23.67;;;;;;;0.04;99.61;101274.94;5023984;28;20656;-72
2022/03/16 05:37:35;;;;;;;48.30;23.50;;;;;;;0.12;100.00;101248.75;5022819;28;20215;-72
2022/03/16 05:40:02;;;;;;;39.93;26.00;;;;;;;0.43;100.00;101234.44;5019911;28;20224;-72
2022/03/16 05:42:29;;;;;;;26.40;23.10;;;;;;;0.73;100.00;101229.50;5030110;28;20208;-72
2022/03/16 05:44:56;;;;;;;24.27;20.13;;;;;;;0.95;100.00;101238.78;5031559;28;20255;-73
2022/03/16 05:47:23;;;;;;;21.33;19.23;;;;;;;1.13;100.00;101247.91;5027330;28;20213;-73
2022/03/16 05:49:52;;;;;;;46.80;18.97;;;;;;;1.31;98.84;101268.19;5024825;28;20278;-73
2022/03/16 05:52:21;;;;;;;51.73;19.83;;;;;;;1.18;97.17;101303.81;5032070;28;20211;-73
2022/03/16 05:54:48;;;;;;;51.90;20.77;;;;;;;1.18;96.85;101333.81;5031472;28;20716;-73
2022/03/16 05:57:15;;;;;;;21.20;18.93;;;;;;;1.30;96.89;101341.06;5031482;28;20206;-73
2022/03/16 05:59:42;;;;;;;20.40;18.67;;;;;;;1.49;96.60;101348.56;5031855;28;20243;-73
2022/03/16 06:02:09;;;;;;;30.53;19.87;;;;;;;1.57;95.54;101361.69;5031911;28;20202;-73
2022/03/16 06:04:35;;;;;;;20.13;18.53;;;;;;;1.72;95.02;101385.31;5031633;28;20213;-73
2022/03/16 06:07:03;;;;;;;74.80;20.30;;;;;;;1.44;94.74;101416.97;5031751;28;20553;-73
2022/03/16 06:09:30;;;;;;;55.47;20.13;;;;;;;1.19;95.78;101407.56;5031587;28;20226;-72
2022/03/16 06:11:57;;;;;;;55.00;20.33;;;;;;;1.32;96.45;101394.28;5028236;28;20209;-73
2022/03/16 06:14:23;;;;;;;53.97;19.60;;;;;;;1.42;96.78;101381.75;5011220;28;20551;-73
2022/03/16 06:16:50;;;;;;;23.40;20.13;;;;;;;1.52;95.96;101391.50;5012104;28;20229;-72
2022/03/16 06:19:16;;;;;;;25.97;20.47;;;;;;;1.64;95.53;101399.63;5012838;28;20723;-73
2022/03/16 06:21:43;;;;;;;52.27;19.57;;;;;;;1.77;95.92;101406.06;5011458;28;20207;-73
2022/03/16 06:24:11;;;;;;;29.13;19.00;;;;;;;1.84;94.93;101417.44;5011550;28;20285;-73
2022/03/16 06:26:37;;;;;;;19.63;17.20;;;;;;;1.89;94.78;101433.91;5011804;28;20203;-73
2022/03/16 06:29:04;;;;;;;19.03;17.53;;;;;;;1.96;93.99;101457.34;5011580;28;20281;-73
2022/03/16 06:31:30;;;;;;;18.50;16.60;;;;;;;2.03;93.98;101462.69;5012528;28;20207;-73
2022/03/16 06:33:57;;;;;;;49.63;18.43;;;;;;;2.11;94.00;101479.25;5015002;28;20795;-73
2022/03/16 06:36:24;;;;;;;85.30;18.77;;;;;;;1.97;92.89;101486.53;5015395;28;20238;-73
2022/03/16 06:38:50;;;;;;;97.40;21.27;;;;;;;1.17;94.98;101473.50;5015328;28;20277;-74
2022/03/16 06:41:18;;;;;;;82.10;22.40;;;;;;;0.95;96.74;101428.09;5015513;28;20206;-74
2022/03/16 06:43:45;;;;;;;51.27;23.60;;;;;;;0.87;98.23;101393.53;5015404;28;20215;-74
2022/03/16 06:46:11;;;;;;;101.37;25.33;;;;;;;0.63;99.35;101360.13;5015435;28;20243;-74
2022/03/16 06:48:38;;;;;;;65.23;25.07;;;;;;;0.64;100.00;101313.97;5026402;28;20226;-74
2022/03/16 06:51:04;;;;;;;81.40;26.80;;;;;;;0.60;100.00;101296.69;5035087;28;20264;-74
2022/03/16 06:53:31;;;;;;;121.23;30.33;;;;;;;0.61;100.00;101279.56;5034839;28;20204;-74
2022/03/16 06:55:57;;;;;;;126.40;30.67;;;;;;;0.77;100.00;101261.28;5034494;28;20229;-74
2022/03/16 06:58:25;;;;;;;96.23;31.97;;;;;;;0.93;100.00;101261.00;5035123;28;20617;-74
2022/03/16 07:00:51;;;;;;;76.37;30.77;;;;;;;1.23;100.00;101254.22;5034828;28;20216;-75
2022/03/16 07:03:18;;;;;;;37.40;29.17;;;;;;;1.44;100.00;101254.91;5034778;28;20248;-74
2022/03/16 07:05:45;;;;;;;50.03;26.93;;;;;;;1.64;100.00;101250.38;5034512;28;20255;-75
2022/03/16 07:08:13;;;;;;;26.40;23.80;;;;;;;1.86;100.00;101257.03;5034554;28;20320;-75
2022/03/16 07:10:42;;;;;;;23.43;21.40;;;;;;;2.03;100.00;101272.13;5034790;28;20260;-75
2022/03/16 07:13:10;;;;;;;24.50;22.10;;;;;;;2.23;100.00;101288.16;5034550;28;20667;-74
2022/03/16 07:15:39;;;;;;;23.60;21.50;;;;;;;2.41;100.00;101313.56;5034417;28;20230;-75
2022/03/16 07:18:06;;;;;;;21.60;19.90;;;;;;;2.56;100.00;101326.91;5024917;28;20253;-74
2022/03/16 07:20:33;;;;;;;20.63;18.93;;;;;;;2.66;99.75;101346.06;5033105;28;20210;-75
2022/03/16 07:23:04;;;;;;;21.13;19.40;;;;;;;2.78;99.01;101369.63;5034249;28;21055;-74
2022/03/16 07:25:31;;;;;;;19.57;17.97;;;;;;;2.94;98.76;101388.97;5034256;28;20267;-75
2022/03/16 07:27:57;;;;;;;19.33;17.83;;;;;;;3.05;98.10;101400.41;5034342;28;20202;-75
2022/03/16 07:30:24;;;;;;;19.67;18.10;;;;;;;3.21;97.92;101412.06;5034320;28;20268;-75
2022/03/16 07:32:52;;;;;;;19.47;18.07;;;;;;;3.33;97.36;101430.44;5033940;28;20206;-75
2022/03/16 07:35:24;;;;;;;21.57;19.97;;;;;;;3.43;96.79;101439.31;5033977;28;20222;-74
2022/03/16 07:37:50;;;;;;;19.57;18.00;;;;;;;3.54;96.35;101462.81;5025297;28;20214;-74
2022/03/16 07:40:17;;;;;;;21.03;19.10;;;;;;;3.64;96.23;101462.19;5014144;28;20232;-74
2022/03/16 07:42:46;;;;;;;18.27;16.83;;;;;;;3.71;95.81;101465.84;5013658;28;20206;-74
2022/03/16 07:45:13;;;;;;;19.17;17.77;;;;;;;3.84;95.90;101477.34;5013447;28;20205;-74
2022/03/16 07:47:40;;;;;;;21.20;19.50;;;;;;;3.95;95.43;101489.69;5017220;28;20213;-74
2022/03/16 07:50:09;;;;;;;26.80;22.13;;;;;;;3.95;96.59;101483.66;5015164;28;20281;-74
2022/03/16 07:52:35;;;;;;;58.53;24.53;;;;;;;3.53;98.98;101440.41;5011173;28;20198;-74
2022/03/16 07:55:02;;;;;;;88.57;26.13;;;;;;;3.23;100.00;101399.16;5012990;28;20195;-74
2022/03/16 07:57:28;;;;;;;174.80;29.90;;;;;;;3.01;100.00;101364.19;5013587;28;20277;-74
2022/03/16 07:59:56;;;;;;;217.53;31.33;;;;;;;2.78;100.00;101342.13;5013346;28;20265;-73
2022/03/16 08:02:23;;;;;;;103.03;30.50;;;;;;;2.65;100.00;101323.69;5013291;28;20727;-74
2022/03/16 08:04:49;;;;;;;307.33;36.17;;;;;;;2.52;100.00;101313.06;5012758;28;20210;-74
2022/03/16 08:07:17;;;;;;;61.27;33.07;;;;;;;2.66;100.00;101297.97;5013255;28;20452;-74
2022/03/16 08:09:43;;;;;;;85.83;33.90;;;;;;;2.96;100.00;101290.16;5013169;28;20223;-74
2022/03/16 08:12:10;;;;;;;34.97;28.43;;;;;;;3.23;100.00;101276.22;5013191;28;20235;-74
2022/03/16 08:14:36;;;;;;;28.63;25.77;;;;;;;3.49;100.00;101283.69;5013229;28;20616;-74
2022/03/16 08:17:03;;;;;;;27.77;24.80;;;;;;;3.71;100.00;101288.53;5014315;28;20222;-74
2022/03/16 08:19:30;;;;;;;27.17;24.50;;;;;;;3.90;100.00;101307.88;5016160;28;20222;-74
2022/03/16 08:21:56;;;;;;;32.23;28.73;;;;;;;4.07;100.00;101330.66;5013202;28;20254;-74
2022/03/16 08:24:24;;;;;;;27.63;23.67;;;;;;;3.63;100.00;101358.88;5012946;28;20199;-74
2022/03/16 08:26:50;;;;;;;41.87;23.67;;;;;;;3.02;100.00;101365.97;5012658;28;20649;-74
2022/03/16 08:29:17;;;;;;;41.70;28.13;;;;;;;3.06;100.00;101347.16;5012434;28;20219;-74
2022/03/16 08:31:44;;;;;;;49.13;29.80;;;;;;;2.96;100.00;101328.84;5012679;28;20285;-74
2022/03/16 08:34:10;;;;;;;124.53;36.40;;;;;;;3.01;100.00;101310.91;5012755;28;20212;-74
2022/03/16 08:36:38;;;;;;;124.93;38.07;;;;;;;3.14;100.00;101294.06;5012715;28;20770;-74
2022/03/16 08:39:05;;;;;;;156.40;41.23;;;;;;;3.22;100.00;101281.34;5012444;28;20235;-74
2022/03/16 08:41:33;;;;;;;160.33;41.20;;;;;;;3.21;100.00;101277.00;5012549;28;20249;-74
2022/03/16 08:43:59;;;;;;;85.43;41.87;;;;;;;3.40;100.00;101270.59;5011094;28;20660;-74
2022/03/16 08:46:26;;;;;;;74.83;42.87;;;;;;;3.67;100.00;101268.66;5014063;28;20205;-74
2022/03/16 08:48:52;;;;;;;86.10;43.10;;;;;;;3.98;100.00;101256.41;5013743;28;20283;-74
2022/03/16 08:51:19;;;;;;;84.00;44.93;;;;;;;4.25;100.00;101258.69;5016525;28;20252;-74
2022/03/16 08:53:45;;;;;;;79.90;43.93;;;;;;;4.57;100.00;101261.03;5013205;28;20257;-74
2022/03/16 08:56:12;;;;;;;74.57;41.00;;;;;;;4.79;100.00;101275.22;5011699;28;20219;-74
2022/03/16 08:58:40;;;;;;;63.73;39.57;;;;;;;4.86;100.00;101279.69;5012084;28;20576;-74
2022/03/16 09:01:06;;;;;;;62.13;39.17;;;;;;;5.07;100.00;101292.09;5012539;28;20207;-75
2022/03/16 09:03:33;;;;;;;60.07;40.13;;;;;;;5.30;100.00;101289.03;5012123;28;20202;-74
2022/03/16 09:06:00;;;;;;;57.23;37.27;;;;;;;5.51;100.00;101304.03;5012229;28;20195;-74
2022/03/16 09:08:26;;;;;;;56.83;36.53;;;;;;;5.79;100.00;101305.34;5012596;28;20223;-74
2022/03/16 09:10:55;;;;;;;59.93;36.63;;;;;;;6.09;100.00;101309.25;5012080;28;20612;-74
2022/03/16 09:13:21;;;;;;;54.70;34.77;;;;;;;6.33;100.00;101325.13;5012395;28;20202;-74
2022/03/16 09:15:51;;;;;;;46.23;32.10;;;;;;;6.50;100.00;101350.38;5011705;28;20219;-74
2022/03/16 09:18:19;;;;;;;38.43;27.37;;;;;;;6.65;100.00;101409.38;5009848;28;20222;-74
2022/03/16 09:20:46;;;;;;;35.67;26.33;;;;;;;6.83;98.10;101505.63;5015589;28;20206;-73
2022/03/16 09:23:13;;;;;;;32.80;24.83;;;;;;;7.01;97.15;101554.31;5014114;28;20209;-74
2022/03/16 09:25:41;;;;;;;37.67;29.00;;;;;;;6.93;95.42;101621.69;5011882;28;20253;-74
2022/03/16 09:28:08;;;;;;;42.73;29.87;;;;;;;6.62;96.99;101581.44;5011201;28;20229;-74
2022/03/16 09:30:35;;;;;;;35.37;28.77;;;;;;;6.91;98.67;101542.06;5009362;28;20302;-74
2022/03/16 09:33:03;;;;;;;40.70;28.47;;;;;;;7.21;98.86;101514.75;5012155;28;20202;-74
2022/03/16 09:35:30;;;;;;;35.17;27.43;;;;;;;7.50;99.41;101502.13;5011506;28;20676;-74
2022/03/16 09:37:58;;;;;;;31.47;26.30;;;;;;;7.72;99.30;101501.47;5011997;28;20267;-74
2022/03/16 09:40:25;;;;;;;31.17;25.77;;;;;;;7.96;98.55;101525.97;5019365;28;20205;-77
2022/03/16 09:42:54;;;;;;;27.70;24.20;;;;;;;8.12;97.65;101543.44;5019966;28;20216;-77
2022/03/16 09:45:22;;;;;;;33.27;24.77;;;;;;;8.30;97.20;101562.66;5028949;28;20200;-76
2022/03/16 09:47:49;;;;;;;27.63;24.63;;;;;;;8.50;96.66;101573.25;5031531;28;20208;-76
2022/03/16 09:50:19;;;;;;;27.70;24.03;;;;;;;8.66;95.38;101597.69;5031797;28;20223;-76
2022/03/16 09:52:46;;;;;;;28.70;25.70;;;;;;;8.73;93.12;101655.00;5031483;28;20209;-76
2022/03/16 09:55:12;;;;;;;31.23;26.23;;;;;;;8.81;91.30;101721.91;5027739;28;20212;-76
2022/03/16 09:57:39;;;;;;;26.87;24.20;;;;;;;8.85;90.47;101734.09;5023143;28;20224;-76
2022/03/16 10:00:07;;;;;;;26.83;24.33;;;;;;;8.88;89.14;101762.75;5031939;28;20285;-76
2022/03/16 10:02:33;;;;;;;27.57;24.83;;;;;;;8.87;87.53;101828.72;5031795;28;20296;-75
2022/03/16 10:05:00;;;;;;;26.30;23.93;;;;;;;8.83;87.02;101850.38;5031192;28;20252;-75
2022/03/16 10:07:31;;;;;;;27.13;24.33;;;;;;;8.82;86.32;101862.53;5035337;28;20241;-75
2022/03/16 10:15:26;;;;;;;25.53;22.73;;;;;;;8.91;87.38;101814.88;5035278;28;20233;-74
2022/03/16 10:17:59;;;;;;;25.37;22.77;;;;;;;8.98;87.93;101806.25;5035053;28;20770;-75
2022/03/16 10:20:28;;;;;;;30.97;25.53;;;;;;;9.03;88.30;101798.50;5035642;28;20299;-75
2022/03/16 10:23:03;;;;;;;29.23;25.63;;;;;;;9.11;87.80;101800.28;5035307;28;20209;-75
2022/03/16 10:25:31;;;;;;;26.80;23.13;;;;;;;9.18;85.85;101840.31;5032394;28;20247;-75
2022/03/16 10:28:11;;;;;;;26.27;23.57;;;;;;;9.27;84.52;101889.88;5027068;28;20251;-75
2022/03/16 10:30:39;;;;;;;29.80;23.27;;;;;;;9.41;85.27;101878.72;5035444;28;20287;-75
2022/03/16 10:33:05;;;;;;;24.40;21.87;;;;;;;9.48;84.16;101894.44;5035460;28;20207;-75
2022/03/16 10:35:33;;;;;;;23.73;21.20;;;;;;;9.51;82.76;101930.06;5034897;28;20304;-76
2022/03/16 10:38:10;;;;;;;26.17;22.33;;;;;;;9.45;81.73;101971.72;5035259;28;20229;-75
2022/03/16 10:40:36;;;;;;;25.93;22.33;;;;;;;9.50;82.29;101951.81;5035046;28;20234;-76
2022/03/16 10:49:01;;;;;;;26.57;21.17;;;;;;;9.70;80.13;102009.34;5034037;28;20218;-75
2022/03/16 10:51:27;;;;;;;23.60;21.37;;;;;;;9.72;79.86;102024.16;5035826;28;20270;-76
2022/03/16 10:53:56;;;;;;;24.17;21.77;;;;;;;9.72;80.31;102002.41;5035769;28;20578;-75
2022/03/16 10:56:23;;;;;;;23.27;21.10;;;;;;;9.81;78.97;102027.69;5031008;28;20227;-75
2022/03/16 10:58:52;;;;;;;26.67;21.03;;;;;;;9.84;79.07;102025.13;5027405;28;20269;-75
2022/03/16 11:01:19;;;;;;;21.70;19.40;;;;;;;10.00;78.43;102036.59;5034888;28;20219;-75
2022/03/16 11:03:47;;;;;;;21.53;19.30;;;;;;;10.08;76.98;102080.13;5028391;28;20597;-75
2022/03/16 11:06:15;;;;;;;22.20;19.03;;;;;;;10.31;76.33;102103.88;5014676;28;20297;-75
2022/03/16 11:08:43;;;;;;;20.37;18.67;;;;;;;10.52;75.91;102112.75;5013979;28;20613;-75
2022/03/16 11:13:52;;;;;;;20.47;18.33;;;;;;;10.81;73.89;102162.63;5014143;28;20205;-75
2022/03/16 11:16:20;;;;;;;18.77;17.17;;;;;;;10.93;72.51;102206.25;5014590;28;20679;-75
2022/03/16 11:18:48;;;;;;;19.50;17.70;;;;;;;11.08;73.28;102198.53;5013822;28;20796;-75
2022/03/16 11:21:19;;;;;;;18.20;16.60;;;;;;;11.33;70.59;102245.75;5032388;23;20252;-79
2022/03/16 11:26:49;;;;;;;16.93;15.63;;;;;;;11.31;70.49;102269.25;5023309;28;20216;-78
2022/03/16 11:29:24;;;;;;;18.20;16.70;;;;;;;11.50;69.41;102277.25;5023075;28;20212;-79
2022/03/16 11:31:50;;;;;;;17.57;15.77;;;;;;;11.59;68.25;102324.38;5022821;28;20231;-79